Main page
METAR-TAF:

METAR-TAF

Airports :

Blue Canyon–Nyack Airport

Emigrant Gap, California, United States

latitude: 39-16-34N, longitude: 120-42-29W, elevation: 5281 ft

Current weather observation

The report was made 26 minutes ago, at 14:52 UTC
Calm wind
Temperature 39°F
Humidity 38%
Pressure 30.31 in. Hg
Visibility: 10 miles
Clear sky

METAR: KBLU 231452Z AUTO 00000KT 10SM CLR 04/M09 A3031 RMK AO2 RAE37 SLP252 P0000 60000 T00391094 53009

Time: 07:18 (15:18 UTC)


TAF: missing

Weather observations and forecasts of more than 4000 airports (METAR and TAF reports).

The available stations are represented by yellow and red dots on the map.

Hover mouse over dot to see the name of the station.

Then click to see weather observations and forecasts.

To change the map : click on the green buttons with a black cross to zoom in, on the green button with a dash to zoom out, or on the green arrows for adjacent maps.


METAR-TAF: